sensor_id;sensor_type;location;lat;lon;timestamp;pressure;altitude;pressure_sealevel;temperature;humidity
83448;BME280;73376;45.472;-73.568;2023-12-28T00:01:40;101459.00;;;3.56;63.79
83448;BME280;73376;45.472;-73.568;2023-12-28T00:04:06;101498.28;;;3.78;63.98
83448;BME280;73376;45.472;-73.568;2023-12-28T00:06:32;101495.34;;;3.71;64.04
83448;BME280;73376;45.472;-73.568;2023-12-28T00:08:58;101494.19;;;3.74;63.99
83448;BME280;73376;45.472;-73.568;2023-12-28T00:11:26;101497.75;;;3.74;64.21
83448;BME280;73376;45.472;-73.568;2023-12-28T00:13:52;101473.06;;;3.60;64.09
83448;BME280;73376;45.472;-73.568;2023-12-28T00:16:18;101470.53;;;3.58;64.39
83448;BME280;73376;45.472;-73.568;2023-12-28T00:18:44;101499.59;;;3.74;64.55
83448;BME280;73376;45.472;-73.568;2023-12-28T00:21:09;101457.16;;;3.56;64.43
83448;BME280;73376;45.472;-73.568;2023-12-28T00:23:35;101479.81;;;3.73;64.41
83448;BME280;73376;45.472;-73.568;2023-12-28T00:26:01;101438.44;;;3.45;64.30
83448;BME280;73376;45.472;-73.568;2023-12-28T00:28:28;101470.47;;;3.68;64.43
83448;BME280;73376;45.472;-73.568;2023-12-28T00:30:54;101463.81;;;3.62;64.58
83448;BME280;73376;45.472;-73.568;2023-12-28T00:33:20;101458.88;;;3.58;64.61
83448;BME280;73376;45.472;-73.568;2023-12-28T00:35:46;101452.91;;;3.54;64.68
83448;BME280;73376;45.472;-73.568;2023-12-28T00:38:12;101452.63;;;3.57;64.65
83448;BME280;73376;45.472;-73.568;2023-12-28T00:40:37;101467.22;;;3.64;64.70
83448;BME280;73376;45.472;-73.568;2023-12-28T00:43:03;101442.09;;;3.54;65.00
83448;BME280;73376;45.472;-73.568;2023-12-28T00:45:30;101441.03;;;3.47;65.22
83448;BME280;73376;45.472;-73.568;2023-12-28T00:47:58;101427.25;;;3.40;65.81
83448;BME280;73376;45.472;-73.568;2023-12-28T00:50:24;101426.41;;;3.40;65.82
83448;BME280;73376;45.472;-73.568;2023-12-28T00:52:52;101405.28;;;3.25;66.45
83448;BME280;73376;45.472;-73.568;2023-12-28T00:55:18;101437.22;;;3.40;66.50
83448;BME280;73376;45.472;-73.568;2023-12-28T00:57:44;101407.91;;;3.17;66.95
83448;BME280;73376;45.472;-73.568;2023-12-28T01:00:11;101440.06;;;3.38;67.46
83448;BME280;73376;45.472;-73.568;2023-12-28T01:02:37;101411.31;;;3.19;67.52
83448;BME280;73376;45.472;-73.568;2023-12-28T01:05:03;101457.28;;;3.37;68.24
83448;BME280;73376;45.472;-73.568;2023-12-28T01:07:29;101447.63;;;3.35;68.70
83448;BME280;73376;45.472;-73.568;2023-12-28T01:09:55;101457.06;;;3.30;68.85
83448;BME280;73376;45.472;-73.568;2023-12-28T01:12:21;101450.94;;;3.28;69.16
83448;BME280;73376;45.472;-73.568;2023-12-28T01:14:47;101453.94;;;3.25;69.37
83448;BME280;73376;45.472;-73.568;2023-12-28T01:17:13;101428.13;;;3.13;69.42
83448;BME280;73376;45.472;-73.568;2023-12-28T01:19:39;101440.47;;;3.16;69.82
83448;BME280;73376;45.472;-73.568;2023-12-28T01:22:05;101447.31;;;3.20;70.20
83448;BME280;73376;45.472;-73.568;2023-12-28T01:24:31;101397.13;;;2.90;70.11
83448;BME280;73376;45.472;-73.568;2023-12-28T01:26:57;101410.88;;;2.96;70.50
83448;BME280;73376;45.472;-73.568;2023-12-28T01:29:23;101409.03;;;2.97;71.02
83448;BME280;73376;45.472;-73.568;2023-12-28T01:31:48;101416.00;;;2.99;70.96
83448;BME280;73376;45.472;-73.568;2023-12-28T01:34:17;101406.78;;;2.92;71.37
83448;BME280;73376;45.472;-73.568;2023-12-28T01:36:43;101425.63;;;3.02;71.60
83448;BME280;73376;45.472;-73.568;2023-12-28T01:39:10;101426.50;;;3.02;71.57
83448;BME280;73376;45.472;-73.568;2023-12-28T01:41:36;101401.13;;;2.86;71.59
83448;BME280;73376;45.472;-73.568;2023-12-28T01:44:03;101429.19;;;3.02;71.91
83448;BME280;73376;45.472;-73.568;2023-12-28T01:46:29;101434.44;;;3.04;72.15
83448;BME280;73376;45.472;-73.568;2023-12-28T01:48:55;101400.81;;;2.89;72.16
83448;BME280;73376;45.472;-73.568;2023-12-28T01:51:22;101386.41;;;2.70;72.04
83448;BME280;73376;45.472;-73.568;2023-12-28T01:53:50;101399.88;;;2.80;72.36
83448;BME280;73376;45.472;-73.568;2023-12-28T01:56:18;101387.97;;;2.73;72.67
83448;BME280;73376;45.472;-73.568;2023-12-28T01:58:49;101400.44;;;2.83;72.56
83448;BME280;73376;45.472;-73.568;2023-12-28T02:01:17;101413.94;;;2.83;72.75
83448;BME280;73376;45.472;-73.568;2023-12-28T02:03:43;101396.63;;;2.76;72.82
83448;BME280;73376;45.472;-73.568;2023-12-28T02:06:10;101402.16;;;2.75;73.34
83448;BME280;73376;45.472;-73.568;2023-12-28T02:08:36;101413.50;;;2.78;73.01
83448;BME280;73376;45.472;-73.568;2023-12-28T02:11:02;101380.06;;;2.62;72.95
83448;BME280;73376;45.472;-73.568;2023-12-28T02:13:29;101422.03;;;2.83;73.04
83448;BME280;73376;45.472;-73.568;2023-12-28T02:16:03;101415.91;;;2.81;73.18
83448;BME280;73376;45.472;-73.568;2023-12-28T02:18:36;101378.94;;;2.54;73.31
83448;BME280;73376;45.472;-73.568;2023-12-28T02:21:08;101362.38;;;2.40;73.39
83448;BME280;73376;45.472;-73.568;2023-12-28T02:23:37;101362.38;;;2.40;73.48
83448;BME280;73376;45.472;-73.568;2023-12-28T02:26:03;101400.50;;;2.64;73.49
83448;BME280;73376;45.472;-73.568;2023-12-28T02:28:32;101409.31;;;2.66;73.47
83448;BME280;73376;45.472;-73.568;2023-12-28T02:30:59;101399.94;;;2.60;73.18
83448;BME280;73376;45.472;-73.568;2023-12-28T02:33:38;101387.94;;;2.45;73.87
83448;BME280;73376;45.472;-73.568;2023-12-28T02:36:11;101420.41;;;2.63;73.76
83448;BME280;73376;45.472;-73.568;2023-12-28T02:38:39;101410.63;;;2.62;74.00
83448;BME280;73376;45.472;-73.568;2023-12-28T02:41:07;101420.69;;;2.60;74.12
83448;BME280;73376;45.472;-73.568;2023-12-28T02:43:34;101391.91;;;2.41;74.25
83448;BME280;73376;45.472;-73.568;2023-12-28T02:46:02;101396.03;;;2.45;74.41
83448;BME280;73376;45.472;-73.568;2023-12-28T02:48:28;101398.03;;;2.43;74.24
83448;BME280;73376;45.472;-73.568;2023-12-28T02:50:54;101389.66;;;2.36;74.72
83448;BME280;73376;45.472;-73.568;2023-12-28T02:53:20;101408.25;;;2.49;74.60
83448;BME280;73376;45.472;-73.568;2023-12-28T02:55:49;101402.56;;;2.43;74.81
83448;BME280;73376;45.472;-73.568;2023-12-28T02:58:15;101402.41;;;2.44;74.84
83448;BME280;73376;45.472;-73.568;2023-12-28T03:00:41;101391.97;;;2.31;75.14
83448;BME280;73376;45.472;-73.568;2023-12-28T03:03:07;101398.22;;;2.32;75.11
83448;BME280;73376;45.472;-73.568;2023-12-28T03:05:33;101409.28;;;2.39;75.12
83448;BME280;73376;45.472;-73.568;2023-12-28T03:07:59;101392.09;;;2.30;75.01
83448;BME280;73376;45.472;-73.568;2023-12-28T03:10:27;101403.31;;;2.35;75.11
83448;BME280;73376;45.472;-73.568;2023-12-28T03:12:54;101412.38;;;2.34;75.02
83448;BME280;73376;45.472;-73.568;2023-12-28T03:15:20;101393.22;;;2.27;75.09
83448;BME280;73376;45.472;-73.568;2023-12-28T03:17:46;101400.06;;;2.31;75.23
83448;BME280;73376;45.472;-73.568;2023-12-28T03:20:12;101397.50;;;2.30;75.01
83448;BME280;73376;45.472;-73.568;2023-12-28T03:22:38;101391.53;;;2.26;75.42
83448;BME280;73376;45.472;-73.568;2023-12-28T03:25:04;101394.41;;;2.25;74.93
83448;BME280;73376;45.472;-73.568;2023-12-28T03:27:30;101397.22;;;2.23;75.26
83448;BME280;73376;45.472;-73.568;2023-12-28T03:29:56;101401.31;;;2.27;75.29
83448;BME280;73376;45.472;-73.568;2023-12-28T03:32:23;101402.34;;;2.26;75.25
83448;BME280;73376;45.472;-73.568;2023-12-28T03:34:49;101368.75;;;2.11;75.35
83448;BME280;73376;45.472;-73.568;2023-12-28T03:37:15;101392.53;;;2.25;75.26
83448;BME280;73376;45.472;-73.568;2023-12-28T03:39:41;101350.72;;;2.02;75.26
83448;BME280;73376;45.472;-73.568;2023-12-28T03:42:07;101346.34;;;2.01;75.20
83448;BME280;73376;45.472;-73.568;2023-12-28T03:44:33;101369.72;;;2.10;75.24
83448;BME280;73376;45.472;-73.568;2023-12-28T03:46:58;101391.13;;;2.21;75.56
83448;BME280;73376;45.472;-73.568;2023-12-28T03:49:25;101375.09;;;2.10;75.34
83448;BME280;73376;45.472;-73.568;2023-12-28T03:51:54;101397.94;;;2.25;75.33
83448;BME280;73376;45.472;-73.568;2023-12-28T03:54:20;101376.66;;;2.12;75.49
83448;BME280;73376;45.472;-73.568;2023-12-28T03:56:46;101367.31;;;2.07;75.48
83448;BME280;73376;45.472;-73.568;2023-12-28T03:59:12;101398.78;;;2.26;75.35
83448;BME280;73376;45.472;-73.568;2023-12-28T04:01:48;101382.34;;;2.19;75.40
83448;BME280;73376;45.472;-73.568;2023-12-28T04:04:14;101361.63;;;2.10;75.56
83448;BME280;73376;45.472;-73.568;2023-12-28T04:06:40;101336.69;;;1.98;75.55
83448;BME280;73376;45.472;-73.568;2023-12-28T04:09:17;101366.31;;;2.18;75.49
83448;BME280;73376;45.472;-73.568;2023-12-28T04:11:43;101361.03;;;2.16;75.41
83448;BME280;73376;45.472;-73.568;2023-12-28T04:14:09;101352.41;;;2.12;75.50
83448;BME280;73376;45.472;-73.568;2023-12-28T04:16:35;101348.84;;;2.12;75.67
83448;BME280;73376;45.472;-73.568;2023-12-28T04:19:01;101340.31;;;2.17;75.64
83448;BME280;73376;45.472;-73.568;2023-12-28T04:21:27;101349.97;;;2.19;75.57
83448;BME280;73376;45.472;-73.568;2023-12-28T04:23:53;101362.88;;;2.25;75.49
83448;BME280;73376;45.472;-73.568;2023-12-28T04:26:19;101335.66;;;2.09;75.60
83448;BME280;73376;45.472;-73.568;2023-12-28T04:28:48;101364.00;;;2.23;75.59
83448;BME280;73376;45.472;-73.568;2023-12-28T04:31:14;101344.84;;;2.16;75.58
83448;BME280;73376;45.472;-73.568;2023-12-28T04:33:40;101351.66;;;2.20;75.49
83448;BME280;73376;45.472;-73.568;2023-12-28T04:36:07;101348.94;;;2.20;75.64
83448;BME280;73376;45.472;-73.568;2023-12-28T04:38:33;101332.09;;;2.08;75.59
83448;BME280;73376;45.472;-73.568;2023-12-28T04:40:59;101345.56;;;2.18;75.30
83448;BME280;73376;45.472;-73.568;2023-12-28T04:43:26;101331.41;;;2.06;75.83
83448;BME280;73376;45.472;-73.568;2023-12-28T04:45:52;101343.72;;;2.19;75.60
83448;BME280;73376;45.472;-73.568;2023-12-28T04:48:18;101333.94;;;2.18;75.59
83448;BME280;73376;45.472;-73.568;2023-12-28T04:50:49;101314.53;;;2.04;75.38
83448;BME280;73376;45.472;-73.568;2023-12-28T04:53:17;101326.25;;;2.13;75.49
83448;BME280;73376;45.472;-73.568;2023-12-28T04:55:43;101301.47;;;2.00;75.44
83448;BME280;73376;45.472;-73.568;2023-12-28T04:58:16;101295.09;;;2.01;75.58
83448;BME280;73376;45.472;-73.568;2023-12-28T05:00:42;101311.53;;;2.07;75.53
83448;BME280;73376;45.472;-73.568;2023-12-28T05:03:10;101301.19;;;2.03;75.79
83448;BME280;73376;45.472;-73.568;2023-12-28T05:05:41;101293.81;;;1.95;75.77
83448;BME280;73376;45.472;-73.568;2023-12-28T05:08:10;101307.03;;;1.98;75.89
83448;BME280;73376;45.472;-73.568;2023-12-28T05:10:38;101293.41;;;1.90;76.05
83448;BME280;73376;45.472;-73.568;2023-12-28T05:13:04;101283.91;;;1.86;76.15
83448;BME280;73376;45.472;-73.568;2023-12-28T05:15:33;101283.06;;;1.85;76.24
83448;BME280;73376;45.472;-73.568;2023-12-28T05:17:59;101286.59;;;1.96;76.21
83448;BME280;73376;45.472;-73.568;2023-12-28T05:20:25;101279.50;;;1.95;76.18
83448;BME280;73376;45.472;-73.568;2023-12-28T05:22:51;101263.78;;;1.80;76.02
83448;BME280;73376;45.472;-73.568;2023-12-28T05:25:17;101282.34;;;1.83;76.21
83448;BME280;73376;45.472;-73.568;2023-12-28T05:27:45;101279.22;;;1.88;76.54
83448;BME280;73376;45.472;-73.568;2023-12-28T05:30:11;101292.84;;;1.86;76.44
83448;BME280;73376;45.472;-73.568;2023-12-28T05:32:37;101282.78;;;1.79;76.71
83448;BME280;73376;45.472;-73.568;2023-12-28T05:35:08;101292.56;;;1.80;76.81
83448;BME280;73376;45.472;-73.568;2023-12-28T05:37:34;101279.44;;;1.67;76.66
83448;BME280;73376;45.472;-73.568;2023-12-28T05:40:00;101273.19;;;1.67;77.00
83448;BME280;73376;45.472;-73.568;2023-12-28T05:42:28;101299.97;;;1.78;77.11
83448;BME280;73376;45.472;-73.568;2023-12-28T05:44:54;101297.41;;;1.76;76.87
83448;BME280;73376;45.472;-73.568;2023-12-28T05:47:20;101293.19;;;1.74;77.27
83448;BME280;73376;45.472;-73.568;2023-12-28T05:49:49;101267.94;;;1.65;76.77
83448;BME280;73376;45.472;-73.568;2023-12-28T05:52:15;101278.81;;;1.73;76.97
83448;BME280;73376;45.472;-73.568;2023-12-28T05:54:44;101289.88;;;1.80;77.04
83448;BME280;73376;45.472;-73.568;2023-12-28T05:57:10;101281.41;;;1.75;77.04
83448;BME280;73376;45.472;-73.568;2023-12-28T05:59:39;101246.38;;;1.55;77.17
83448;BME280;73376;45.472;-73.568;2023-12-28T06:02:05;101248.97;;;1.57;77.25
83448;BME280;73376;45.472;-73.568;2023-12-28T06:04:32;101274.03;;;1.77;77.25
83448;BME280;73376;45.472;-73.568;2023-12-28T06:06:59;101265.50;;;1.72;77.16
83448;BME280;73376;45.472;-73.568;2023-12-28T06:09:25;101240.31;;;1.53;77.40
83448;BME280;73376;45.472;-73.568;2023-12-28T06:11:53;101243.56;;;1.57;77.34
83448;BME280;73376;45.472;-73.568;2023-12-28T06:14:21;101270.75;;;1.73;77.72
83448;BME280;73376;45.472;-73.568;2023-12-28T06:16:47;101241.16;;;1.54;77.38
83448;BME280;73376;45.472;-73.568;2023-12-28T06:19:13;101253.34;;;1.58;77.78
83448;BME280;73376;45.472;-73.568;2023-12-28T06:21:39;101276.00;;;1.75;77.47
83448;BME280;73376;45.472;-73.568;2023-12-28T06:24:07;101282.13;;;1.77;77.53
83448;BME280;73376;45.472;-73.568;2023-12-28T06:26:42;101275.84;;;1.76;77.49
83448;BME280;73376;45.472;-73.568;2023-12-28T06:29:13;101257.72;;;1.69;77.56
83448;BME280;73376;45.472;-73.568;2023-12-28T06:31:39;101247.66;;;1.61;77.47
83448;BME280;73376;45.472;-73.568;2023-12-28T06:34:05;101248.50;;;1.61;77.56
83448;BME280;73376;45.472;-73.568;2023-12-28T06:36:32;101247.50;;;1.62;77.69
83448;BME280;73376;45.472;-73.568;2023-12-28T06:38:59;101262.38;;;1.76;77.64
83448;BME280;73376;45.472;-73.568;2023-12-28T06:41:28;101251.03;;;1.73;77.66
83448;BME280;73376;45.472;-73.568;2023-12-28T06:43:54;101257.97;;;1.75;77.69
83448;BME280;73376;45.472;-73.568;2023-12-28T06:46:24;101239.59;;;1.61;77.71
83448;BME280;73376;45.472;-73.568;2023-12-28T06:48:50;101248.78;;;1.68;77.60
83448;BME280;73376;45.472;-73.568;2023-12-28T06:51:17;101213.81;;;1.39;77.34
83448;BME280;73376;45.472;-73.568;2023-12-28T06:53:44;101264.22;;;1.66;77.48
83448;BME280;73376;45.472;-73.568;2023-12-28T06:56:10;101194.38;;;1.35;77.54
83448;BME280;73376;45.472;-73.568;2023-12-28T06:58:36;101249.50;;;1.70;77.75
83448;BME280;73376;45.472;-73.568;2023-12-28T07:01:07;101253.16;;;1.69;77.65
83448;BME280;73376;45.472;-73.568;2023-12-28T07:03:33;101239.28;;;1.64;77.73
83448;BME280;73376;45.472;-73.568;2023-12-28T07:05:59;101240.84;;;1.67;77.61
83448;BME280;73376;45.472;-73.568;2023-12-28T07:08:25;101230.09;;;1.57;77.85
83448;BME280;73376;45.472;-73.568;2023-12-28T07:10:51;101212.50;;;1.53;77.68
83448;BME280;73376;45.472;-73.568;2023-12-28T07:13:17;101240.84;;;1.67;77.83
83448;BME280;73376;45.472;-73.568;2023-12-28T07:15:43;101248.94;;;1.67;77.74
83448;BME280;73376;45.472;-73.568;2023-12-28T07:18:09;101234.03;;;1.62;77.85
83448;BME280;73376;45.472;-73.568;2023-12-28T07:20:35;101209.41;;;1.48;77.56
83448;BME280;73376;45.472;-73.568;2023-12-28T07:23:01;101231.22;;;1.64;77.92
83448;BME280;73376;45.472;-73.568;2023-12-28T07:25:27;101214.63;;;1.59;77.85
83448;BME280;73376;45.472;-73.568;2023-12-28T07:27:55;101203.16;;;1.57;77.72
83448;BME280;73376;45.472;-73.568;2023-12-28T07:30:21;101210.06;;;1.59;77.85
83448;BME280;73376;45.472;-73.568;2023-12-28T07:32:47;101204.56;;;1.61;77.83
83448;BME280;73376;45.472;-73.568;2023-12-28T07:35:15;101179.47;;;1.51;77.71
83448;BME280;73376;45.472;-73.568;2023-12-28T07:37:41;101146.19;;;1.32;77.91
83448;BME280;73376;45.472;-73.568;2023-12-28T07:40:12;101181.75;;;1.46;78.09
83448;BME280;73376;45.472;-73.568;2023-12-28T07:42:38;101178.06;;;1.47;78.00
83448;BME280;73376;45.472;-73.568;2023-12-28T07:45:04;101170.13;;;1.45;78.18
83448;BME280;73376;45.472;-73.568;2023-12-28T07:47:30;101144.38;;;1.33;78.27
83448;BME280;73376;45.472;-73.568;2023-12-28T07:49:56;101177.63;;;1.51;78.43
83448;BME280;73376;45.472;-73.568;2023-12-28T07:52:22;101179.59;;;1.49;78.19
83448;BME280;73376;45.472;-73.568;2023-12-28T07:54:48;101178.75;;;1.49;78.21
83448;BME280;73376;45.472;-73.568;2023-12-28T07:57:15;101118.03;;;1.17;78.37
83448;BME280;73376;45.472;-73.568;2023-12-28T07:59:41;101147.75;;;1.35;78.19
83448;BME280;73376;45.472;-73.568;2023-12-28T08:02:07;101176.34;;;1.46;78.22
83448;BME280;73376;45.472;-73.568;2023-12-28T08:04:33;101162.94;;;1.36;78.08
83448;BME280;73376;45.472;-73.568;2023-12-28T08:06:59;101152.47;;;1.33;78.34
83448;BME280;73376;45.472;-73.568;2023-12-28T08:09:25;101191.66;;;1.55;78.05
83448;BME280;73376;45.472;-73.568;2023-12-28T08:11:54;101184.56;;;1.54;78.15
83448;BME280;73376;45.472;-73.568;2023-12-28T08:14:20;101159.81;;;1.40;78.19
83448;BME280;73376;45.472;-73.568;2023-12-28T08:16:46;101181.72;;;1.55;78.16
83448;BME280;73376;45.472;-73.568;2023-12-28T08:19:12;101170.28;;;1.44;78.15
83448;BME280;73376;45.472;-73.568;2023-12-28T08:21:41;101159.25;;;1.37;77.97
83448;BME280;73376;45.472;-73.568;2023-12-28T08:24:09;101194.34;;;1.55;78.05
83448;BME280;73376;45.472;-73.568;2023-12-28T08:26:35;101163.91;;;1.35;78.19
83448;BME280;73376;45.472;-73.568;2023-12-28T08:29:01;101192.78;;;1.52;77.91
83448;BME280;73376;45.472;-73.568;2023-12-28T08:31:27;101200.88;;;1.52;78.04
83448;BME280;73376;45.472;-73.568;2023-12-28T08:33:55;101162.94;;;1.36;78.01
83448;BME280;73376;45.472;-73.568;2023-12-28T08:36:22;101194.22;;;1.56;78.15
83448;BME280;73376;45.472;-73.568;2023-12-28T08:38:48;101180.91;;;1.45;78.16
83448;BME280;73376;45.472;-73.568;2023-12-28T08:41:23;101196.59;;;1.59;77.80
83448;BME280;73376;45.472;-73.568;2023-12-28T08:43:55;101154.69;;;1.37;78.00
83448;BME280;73376;45.472;-73.568;2023-12-28T08:46:22;101152.84;;;1.38;78.07
83448;BME280;73376;45.472;-73.568;2023-12-28T08:48:50;101175.78;;;1.52;78.13
83448;BME280;73376;45.472;-73.568;2023-12-28T08:51:16;101155.53;;;1.48;78.04
83448;BME280;73376;45.472;-73.568;2023-12-28T08:53:42;101163.41;;;1.59;78.14
83448;BME280;73376;45.472;-73.568;2023-12-28T08:56:19;101167.84;;;1.60;78.09
83448;BME280;73376;45.472;-73.568;2023-12-28T08:58:46;101168.38;;;1.63;78.29
83448;BME280;73376;45.472;-73.568;2023-12-28T09:01:17;101135.00;;;1.37;78.05
83448;BME280;73376;45.472;-73.568;2023-12-28T09:03:44;101139.38;;;1.38;78.05
83448;BME280;73376;45.472;-73.568;2023-12-28T09:06:10;101146.03;;;1.44;78.14
83448;BME280;73376;45.472;-73.568;2023-12-28T09:08:36;101173.78;;;1.63;77.96
83448;BME280;73376;45.472;-73.568;2023-12-28T09:11:02;101183.69;;;1.63;78.10
83448;BME280;73376;45.472;-73.568;2023-12-28T09:13:28;101176.34;;;1.55;78.36
83448;BME280;73376;45.472;-73.568;2023-12-28T09:15:54;101152.41;;;1.42;77.95
83448;BME280;73376;45.472;-73.568;2023-12-28T09:18:20;101179.19;;;1.54;78.21
83448;BME280;73376;45.472;-73.568;2023-12-28T09:20:46;101159.09;;;1.38;78.26
83448;BME280;73376;45.472;-73.568;2023-12-28T09:23:12;101175.22;;;1.48;78.05
83448;BME280;73376;45.472;-73.568;2023-12-28T09:25:40;101160.81;;;1.39;78.15
83448;BME280;73376;45.472;-73.568;2023-12-28T09:28:06;101167.31;;;1.47;78.02
83448;BME280;73376;45.472;-73.568;2023-12-28T09:30:32;101123.97;;;1.21;77.90
83448;BME280;73376;45.472;-73.568;2023-12-28T09:32:58;101176.06;;;1.49;78.09
83448;BME280;73376;45.472;-73.568;2023-12-28T09:35:24;101201.97;;;1.59;78.28
83448;BME280;73376;45.472;-73.568;2023-12-28T09:37:50;101171.53;;;1.49;78.12
83448;BME280;73376;45.472;-73.568;2023-12-28T09:40:16;101149.59;;;1.34;78.09
83448;BME280;73376;45.472;-73.568;2023-12-28T09:45:34;101155.34;;;1.49;77.95
83448;BME280;73376;45.472;-73.568;2023-12-28T09:48:04;101153.66;;;1.48;78.00
83448;BME280;73376;45.472;-73.568;2023-12-28T09:50:30;101178.72;;;1.68;78.22
83448;BME280;73376;45.472;-73.568;2023-12-28T09:52:56;101143.59;;;1.50;78.18
83448;BME280;73376;45.472;-73.568;2023-12-28T09:55:22;101166.25;;;1.67;78.06
83448;BME280;73376;45.472;-73.568;2023-12-28T09:57:53;101169.78;;;1.68;77.94
83448;BME280;73376;45.472;-73.568;2023-12-28T10:00:20;101157.19;;;1.58;78.26
83448;BME280;73376;45.472;-73.568;2023-12-28T10:02:46;101164.69;;;1.64;77.99
83448;BME280;73376;45.472;-73.568;2023-12-28T10:05:15;101127.56;;;1.49;78.11
83448;BME280;73376;45.472;-73.568;2023-12-28T10:07:47;101162.53;;;1.68;78.14
83448;BME280;73376;45.472;-73.568;2023-12-28T10:10:14;101172.47;;;1.68;78.39
83448;BME280;73376;45.472;-73.568;2023-12-28T10:12:40;101174.31;;;1.67;78.08
83448;BME280;73376;45.472;-73.568;2023-12-28T10:15:06;101163.41;;;1.59;78.13
83448;BME280;73376;45.472;-73.568;2023-12-28T10:17:33;101169.50;;;1.61;78.22
83448;BME280;73376;45.472;-73.568;2023-12-28T10:20:03;101181.56;;;1.67;78.19
83448;BME280;73376;45.472;-73.568;2023-12-28T10:22:32;101177.03;;;1.67;78.30
83448;BME280;73376;45.472;-73.568;2023-12-28T10:24:59;101160.03;;;1.57;78.35
83448;BME280;73376;45.472;-73.568;2023-12-28T10:27:26;101180.69;;;1.66;78.24
83448;BME280;73376;45.472;-73.568;2023-12-28T10:29:56;101152.66;;;1.49;78.53
83448;BME280;73376;45.472;-73.568;2023-12-28T10:32:22;101165.25;;;1.58;78.32
83448;BME280;73376;45.472;-73.568;2023-12-28T10:34:52;101155.06;;;1.52;78.23
83448;BME280;73376;45.472;-73.568;2023-12-28T10:37:20;101161.16;;;1.54;78.41
83448;BME280;73376;45.472;-73.568;2023-12-28T10:39:52;101161.56;;;1.59;78.44
83448;BME280;73376;45.472;-73.568;2023-12-28T10:42:32;101151.97;;;1.47;78.54
83448;BME280;73376;45.472;-73.568;2023-12-28T10:45:05;101170.66;;;1.58;78.44
83448;BME280;73376;45.472;-73.568;2023-12-28T10:47:38;101156.78;;;1.53;78.45
83448;BME280;73376;45.472;-73.568;2023-12-28T10:50:05;101156.63;;;1.55;78.39
83448;BME280;73376;45.472;-73.568;2023-12-28T10:52:33;101148.69;;;1.53;78.44
83448;BME280;73376;45.472;-73.568;2023-12-28T10:57:59;101134.25;;;1.45;78.41
83448;BME280;73376;45.472;-73.568;2023-12-28T11:00:33;101161.00;;;1.56;78.16
83448;BME280;73376;45.472;-73.568;2023-12-28T11:03:03;101148.00;;;1.51;78.42
83448;BME280;73376;45.472;-73.568;2023-12-28T11:05:31;101136.66;;;1.48;78.43
83448;BME280;73376;45.472;-73.568;2023-12-28T11:07:59;101129.59;;;1.47;78.29
83448;BME280;73376;45.472;-73.568;2023-12-28T11:10:26;101106.50;;;1.34;78.47
83448;BME280;73376;45.472;-73.568;2023-12-28T11:12:56;101124.88;;;1.49;78.21
83448;BME280;73376;45.472;-73.568;2023-12-28T11:15:23;101132.38;;;1.55;78.83
83448;BME280;73376;45.472;-73.568;2023-12-28T11:17:52;101126.28;;;1.53;78.57
83448;BME280;73376;45.472;-73.568;2023-12-28T11:20:19;101114.38;;;1.46;78.56
83448;BME280;73376;45.472;-73.568;2023-12-28T11:22:48;101104.22;;;1.39;78.35
83448;BME280;73376;45.472;-73.568;2023-12-28T11:25:16;101106.59;;;1.42;78.45
83448;BME280;73376;45.472;-73.568;2023-12-28T11:27:42;101103.78;;;1.44;78.58
83448;BME280;73376;45.472;-73.568;2023-12-28T11:30:12;101114.22;;;1.57;78.54
83448;BME280;73376;45.472;-73.568;2023-12-28T11:32:41;101124.84;;;1.58;78.54
83448;BME280;73376;45.472;-73.568;2023-12-28T11:35:13;101103.50;;;1.47;78.43
83448;BME280;73376;45.472;-73.568;2023-12-28T11:37:51;101118.91;;;1.55;78.77
83448;BME280;73376;45.472;-73.568;2023-12-28T11:40:18;101118.91;;;1.55;78.67
83448;BME280;73376;45.472;-73.568;2023-12-28T11:42:51;101121.75;;;1.53;78.67
83448;BME280;73376;45.472;-73.568;2023-12-28T11:45:18;101135.50;;;1.60;78.57
83448;BME280;73376;45.472;-73.568;2023-12-28T11:47:47;101127.41;;;1.60;78.53
83448;BME280;73376;45.472;-73.568;2023-12-28T11:50:26;101112.25;;;1.49;78.32
83448;BME280;73376;45.472;-73.568;2023-12-28T11:52:52;101107.75;;;1.50;78.48
83448;BME280;73376;45.472;-73.568;2023-12-28T11:55:22;101115.63;;;1.61;78.25
83448;BME280;73376;45.472;-73.568;2023-12-28T11:57:50;101103.03;;;1.52;78.38
83448;BME280;73376;45.472;-73.568;2023-12-28T12:00:17;101106.56;;;1.52;78.57
83448;BME280;73376;45.472;-73.568;2023-12-28T12:02:45;101123.25;;;1.65;78.36
83448;BME280;73376;45.472;-73.568;2023-12-28T12:05:11;101110.91;;;1.63;78.42
83448;BME280;73376;45.472;-73.568;2023-12-28T12:07:38;101093.09;;;1.52;78.26
83448;BME280;73376;45.472;-73.568;2023-12-28T12:10:05;101082.34;;;1.42;78.37
83448;BME280;73376;45.472;-73.568;2023-12-28T12:12:34;101059.16;;;1.32;78.17
83448;BME280;73376;45.472;-73.568;2023-12-28T12:15:00;101108.81;;;1.67;77.96
83448;BME280;73376;45.472;-73.568;2023-12-28T12:17:26;101103.84;;;1.62;78.60
83448;BME280;73376;45.472;-73.568;2023-12-28T12:19:52;101086.56;;;1.55;78.45
83448;BME280;73376;45.472;-73.568;2023-12-28T12:22:21;101093.59;;;1.65;78.44
83448;BME280;73376;45.472;-73.568;2023-12-28T12:24:48;101100.84;;;1.65;78.54
83448;BME280;73376;45.472;-73.568;2023-12-28T12:27:14;101083.88;;;1.55;78.55
83448;BME280;73376;45.472;-73.568;2023-12-28T12:29:40;101082.03;;;1.55;78.66
83448;BME280;73376;45.472;-73.568;2023-12-28T12:32:09;101089.06;;;1.66;78.27
83448;BME280;73376;45.472;-73.568;2023-12-28T12:34:36;101069.69;;;1.53;78.38
83448;BME280;73376;45.472;-73.568;2023-12-28T12:37:06;101079.19;;;1.57;78.51
83448;BME280;73376;45.472;-73.568;2023-12-28T12:39:32;101048.88;;;1.45;78.46
83448;BME280;73376;45.472;-73.568;2023-12-28T12:42:00;101050.44;;;1.48;78.40
83448;BME280;73376;45.472;-73.568;2023-12-28T12:44:26;101020.31;;;1.34;78.41
83448;BME280;73376;45.472;-73.568;2023-12-28T12:46:59;101064.56;;;1.59;78.69